createdAt,value
2019-05-17T00:01:21.809Z,8.45
2019-05-17T00:03:27.059Z,7.25
2019-05-17T00:05:30.920Z,6.97
2019-05-17T00:07:36.859Z,7.80
2019-05-17T00:09:40.624Z,6.25
2019-05-17T00:11:44.727Z,6.78
2019-05-17T00:13:48.914Z,6.42
2019-05-17T00:15:53.033Z,6.50
2019-05-17T00:17:57.221Z,6.12
2019-05-17T00:20:01.360Z,6.83
2019-05-17T00:22:07.359Z,5.92
2019-05-17T00:24:11.828Z,8.95
2019-05-17T00:26:16.391Z,8.85
2019-05-17T00:28:20.695Z,7.12
2019-05-17T00:30:26.529Z,5.22
2019-05-17T00:32:30.422Z,6.12
2019-05-17T00:34:34.525Z,6.97
2019-05-17T00:36:38.738Z,7.55
2019-05-17T00:38:48.364Z,6.10
2019-05-17T00:40:48.702Z,6.10
2019-05-17T00:42:52.816Z,5.33
2019-05-17T00:44:56.910Z,5.35
2019-05-17T00:47:01.026Z,6.65
2019-05-17T00:49:06.483Z,6.70
2019-05-17T00:51:11.005Z,6.80
2019-05-17T00:53:16.352Z,6.00
2019-05-17T00:55:20.386Z,7.05
2019-05-17T00:57:27.193Z,7.47
2019-05-17T00:59:30.509Z,8.13
2019-05-17T01:01:36.461Z,10.55
2019-05-17T01:03:40.776Z,9.23
2019-05-17T01:05:47.166Z,9.53
2019-05-17T01:07:50.454Z,9.88
2019-05-17T01:09:56.517Z,7.65
2019-05-17T01:12:00.395Z,7.05
2019-05-17T01:14:06.838Z,7.22
2019-05-17T01:16:10.567Z,9.25
2019-05-17T01:18:16.252Z,6.83
2019-05-17T01:20:20.514Z,7.80
2019-05-17T01:22:26.292Z,8.60
2019-05-17T01:24:30.180Z,7.40
2019-05-17T01:26:33.998Z,8.58
2019-05-17T01:28:38.186Z,9.25
2019-05-17T01:30:42.292Z,8.75
2019-05-17T01:32:46.688Z,9.90
2019-05-17T01:34:50.824Z,11.08
2019-05-17T01:36:56.868Z,10.00
2019-05-17T01:39:13.185Z,9.63
2019-05-17T01:41:07.100Z,8.53
2019-05-17T01:43:11.293Z,9.55
2019-05-17T01:45:16.700Z,14.13
2019-05-17T01:47:20.759Z,26.62
2019-05-17T01:49:26.937Z,30.17
2019-05-17T01:51:30.508Z,32.13
2019-05-17T01:53:36.475Z,34.83
2019-05-17T01:55:40.314Z,32.30
2019-05-17T01:57:44.218Z,28.05
2019-05-17T01:59:48.046Z,27.75
2019-05-17T02:01:53.550Z,28.42
2019-05-17T02:03:57.691Z,27.35
2019-05-17T02:06:01.893Z,30.17
2019-05-17T02:08:06.611Z,30.97
2019-05-17T02:10:11.652Z,31.05
2019-05-17T02:12:17.282Z,26.90
2019-05-17T02:14:21.642Z,31.77
2019-05-17T02:16:26.792Z,27.20
2019-05-17T02:18:30.966Z,27.77
2019-05-17T02:20:37.398Z,26.48
2019-05-17T02:22:40.916Z,28.27
2019-05-17T02:24:46.422Z,28.55
2019-05-17T02:26:50.360Z,28.83
2019-05-17T02:28:54.481Z,31.10
2019-05-17T02:30:59.734Z,33.42
2019-05-17T02:33:04.521Z,28.95
2019-05-17T02:35:08.958Z,31.10
2019-05-17T02:37:13.639Z,29.50
2019-05-17T02:39:17.899Z,28.95
2019-05-17T02:41:22.750Z,30.32
2019-05-17T02:43:27.144Z,36.60
2019-05-17T02:45:32.787Z,31.65
2019-05-17T02:47:36.821Z,34.70
2019-05-17T02:49:42.461Z,38.35
2019-05-17T02:51:46.354Z,34.70
2019-05-17T02:53:52.677Z,37.40
2019-05-17T02:55:56.411Z,38.90
2019-05-17T02:58:03.024Z,38.23
2019-05-17T03:00:08.475Z,35.13
2019-05-17T03:02:12.917Z,30.50
2019-05-17T03:04:17.050Z,36.00
2019-05-17T03:06:22.788Z,38.35
2019-05-17T03:08:26.830Z,38.42
2019-05-17T03:10:33.474Z,36.77
2019-05-17T03:12:36.570Z,45.03
2019-05-17T03:14:43.245Z,41.45
2019-05-17T03:16:46.332Z,40.92
2019-05-17T03:18:52.921Z,38.73
2019-05-17T03:20:56.075Z,43.17
2019-05-17T03:23:03.319Z,40.55
2019-05-17T03:25:06.453Z,43.95
2019-05-17T03:27:13.530Z,39.73
2019-05-17T03:29:16.202Z,41.37
2019-05-17T03:31:25.647Z,36.55
2019-05-17T03:33:27.210Z,35.63
2019-05-17T03:35:37.978Z,33.65
2019-05-17T03:37:38.275Z,32.88
2019-05-17T03:39:42.714Z,31.93
2019-05-17T03:41:47.230Z,31.27
2019-05-17T03:43:53.274Z,34.88
2019-05-17T03:45:56.976Z,31.40
2019-05-17T03:48:04.874Z,33.00
2019-05-17T03:50:07.469Z,35.23
2019-05-17T03:52:13.525Z,34.70
2019-05-17T03:54:17.196Z,31.12
2019-05-17T03:56:22.454Z,34.20
2019-05-17T03:58:26.871Z,34.70
2019-05-17T04:00:30.685Z,31.37
2019-05-17T04:02:34.883Z,32.13
2019-05-17T04:04:38.983Z,32.93
2019-05-17T04:06:43.621Z,34.08
2019-05-17T04:08:48.139Z,33.40
2019-05-17T04:10:53.153Z,29.20
2019-05-17T04:12:57.485Z,30.52
2019-05-17T04:15:03.330Z,27.17
2019-05-17T04:17:07.543Z,24.72
2019-05-17T04:19:13.910Z,21.25
2019-05-17T04:21:17.324Z,13.45
2019-05-17T04:23:23.282Z,13.78
2019-05-17T04:25:27.087Z,14.90
2019-05-17T04:27:32.652Z,15.23
2019-05-17T04:29:36.897Z,14.28
2019-05-17T04:31:43.384Z,15.72
2019-05-17T04:33:46.857Z,16.05
2019-05-17T04:35:54.145Z,17.50
2019-05-17T04:37:56.946Z,16.50
2019-05-17T04:40:03.602Z,15.18
2019-05-17T04:42:06.997Z,15.58
2019-05-17T04:44:12.846Z,19.00
2019-05-17T04:46:16.760Z,17.92
2019-05-17T04:48:23.296Z,18.70
2019-05-17T04:50:26.438Z,19.20
2019-05-17T04:52:33.639Z,18.15
2019-05-17T04:54:36.471Z,18.20
2019-05-17T04:56:42.631Z,19.27
2019-05-17T04:58:49.958Z,21.60
2019-05-17T05:00:53.624Z,21.07
2019-05-17T05:02:57.131Z,19.98
2019-05-17T05:05:03.194Z,20.40
2019-05-17T05:07:07.172Z,20.72
2019-05-17T05:09:12.698Z,22.10
2019-05-17T05:11:16.629Z,22.22
2019-05-17T05:13:22.806Z,21.97
2019-05-17T05:15:44.881Z,21.67
2019-05-17T05:17:48.827Z,21.10
2019-05-17T05:19:53.016Z,22.33
2019-05-17T05:21:56.746Z,22.43
2019-05-17T05:24:02.458Z,22.17
2019-05-17T05:26:06.176Z,21.57
2019-05-17T05:28:11.443Z,22.27
2019-05-17T05:30:15.621Z,22.33
2019-05-17T05:32:19.157Z,22.43
2019-05-17T05:34:23.020Z,23.00
2019-05-17T05:36:26.939Z,21.97
2019-05-17T05:38:32.012Z,20.73
2019-05-17T05:40:36.191Z,22.10
2019-05-17T05:42:42.263Z,22.37
2019-05-17T05:44:45.325Z,22.83
2019-05-17T05:46:51.388Z,24.03
2019-05-17T05:48:54.779Z,19.50
2019-05-17T05:50:58.671Z,20.17
2019-05-17T05:53:02.677Z,20.63
2019-05-17T05:55:08.631Z,20.43
2019-05-17T05:57:12.694Z,19.73
2019-05-17T05:59:16.750Z,18.40
2019-05-17T06:01:21.980Z,18.40
2019-05-17T06:03:26.005Z,18.27
2019-05-17T06:05:32.354Z,19.70
2019-05-17T06:07:35.554Z,20.60
2019-05-17T06:09:39.460Z,20.73
2019-05-17T06:11:42.991Z,18.03
2019-05-17T06:13:46.515Z,19.77
2019-05-17T06:15:51.796Z,19.83
2019-05-17T06:17:55.803Z,20.83
2019-05-17T06:19:59.709Z,18.07
2019-05-17T06:22:03.238Z,18.00
2019-05-17T06:24:06.776Z,18.03
2019-05-17T06:26:12.461Z,16.57
2019-05-17T06:28:15.890Z,16.97
2019-05-17T06:30:21.980Z,17.77
2019-05-17T06:32:25.589Z,18.03
2019-05-17T06:34:29.493Z,17.37
2019-05-17T06:36:33.049Z,16.70
2019-05-17T06:38:36.573Z,18.33
2019-05-17T06:40:42.037Z,17.97
2019-05-17T06:42:45.855Z,19.50
2019-05-17T06:44:49.642Z,18.67
2019-05-17T06:46:53.214Z,20.37
2019-05-17T06:48:57.028Z,15.93
2019-05-17T06:51:02.519Z,20.30
2019-05-17T06:53:06.390Z,20.40
2019-05-17T06:55:12.632Z,17.77
2019-05-17T06:57:15.895Z,18.40
2019-05-17T06:59:19.852Z,18.20
2019-05-17T07:01:23.452Z,15.83
2019-05-17T07:03:29.358Z,14.63
2019-05-17T07:05:43.326Z,16.97
2019-05-17T07:07:49.591Z,16.40
2019-05-17T07:09:52.677Z,16.60
2019-05-17T07:11:56.481Z,16.73
2019-05-17T07:14:00.383Z,17.67
2019-05-17T07:16:04.290Z,19.20
2019-05-17T07:18:10.023Z,17.13
2019-05-17T07:20:13.725Z,18.87
2019-05-17T07:22:17.249Z,17.30
2019-05-17T07:24:21.149Z,18.37
2019-05-17T07:26:25.069Z,19.10
2019-05-17T07:28:30.276Z,18.60
2019-05-17T07:30:34.295Z,16.70
2019-05-17T07:32:40.300Z,18.83
2019-05-17T07:34:43.642Z,20.23
2019-05-17T07:36:47.559Z,17.33
2019-05-17T07:38:51.463Z,18.50
2019-05-17T07:40:55.358Z,20.03
2019-05-17T07:43:07.869Z,19.70
2019-05-17T07:45:06.758Z,20.10
2019-05-17T07:47:10.307Z,21.87
2019-05-17T07:49:13.864Z,23.43
2019-05-17T07:51:19.516Z,22.73
2019-05-17T07:53:23.291Z,21.27
2019-05-17T07:55:26.817Z,23.33
2019-05-17T07:57:30.700Z,22.23
2019-05-17T07:59:34.493Z,24.73
2019-05-17T08:01:38.408Z,18.60
2019-05-17T08:03:42.313Z,18.27
2019-05-17T08:05:46.121Z,23.80
2019-05-17T08:07:50.135Z,20.20
2019-05-17T08:09:53.628Z,20.00
2019-05-17T08:11:59.573Z,19.70
2019-05-17T08:14:02.811Z,22.80
2019-05-17T08:16:06.770Z,20.93
2019-05-17T08:18:11.077Z,18.87
2019-05-17T08:20:15.187Z,20.93
2019-05-17T08:22:20.187Z,21.57
2019-05-17T08:24:23.886Z,18.40
2019-05-17T08:26:29.675Z,19.83
2019-05-17T08:28:33.285Z,21.93
2019-05-17T08:30:36.815Z,19.90
2019-05-17T08:32:40.589Z,17.07
2019-05-17T08:34:44.492Z,19.50
2019-05-17T08:36:49.851Z,19.90
2019-05-17T08:38:53.826Z,19.83
2019-05-17T08:41:00.375Z,20.43
2019-05-17T08:43:02.989Z,17.17
2019-05-17T08:45:09.520Z,17.20
2019-05-17T08:47:12.848Z,15.90
2019-05-17T08:49:16.724Z,18.03
2019-05-17T08:51:20.841Z,17.00
2019-05-17T08:53:24.761Z,17.23
2019-05-17T08:55:29.913Z,15.43
2019-05-17T08:57:33.798Z,18.47
2019-05-17T08:59:37.311Z,18.97
2019-05-17T09:01:41.785Z,19.00
2019-05-17T09:03:45.896Z,16.83
2019-05-17T09:05:52.541Z,14.90
2019-05-17T09:07:55.048Z,18.73
2019-05-17T09:10:01.499Z,21.90
2019-05-17T09:12:04.757Z,15.80
2019-05-17T09:14:10.505Z,18.73
2019-05-17T09:16:14.160Z,19.40
2019-05-17T09:18:17.756Z,21.57
2019-05-17T09:20:21.302Z,17.57
2019-05-17T09:22:25.171Z,17.53
2019-05-17T09:24:29.987Z,18.30
2019-05-17T09:26:33.993Z,16.00
2019-05-17T09:28:39.360Z,19.23
2019-05-17T09:30:43.126Z,16.57
2019-05-17T09:32:46.666Z,18.27
2019-05-17T09:34:50.197Z,16.17
2019-05-17T09:36:54.043Z,16.97
2019-05-17T09:38:59.920Z,17.50
2019-05-17T09:41:03.166Z,21.10
2019-05-17T09:43:07.079Z,16.63
2019-05-17T09:45:11.915Z,16.40
2019-05-17T09:47:15.472Z,17.17
2019-05-17T09:49:19.380Z,18.53
2019-05-17T09:51:23.324Z,15.73
2019-05-17T09:53:27.215Z,17.13
2019-05-17T09:55:31.117Z,16.50
2019-05-17T09:57:34.662Z,16.87
2019-05-17T09:59:40.332Z,15.90
2019-05-17T10:01:43.854Z,16.03
2019-05-17T10:03:50.367Z,14.20
2019-05-17T10:05:53.314Z,13.17
2019-05-17T10:07:57.217Z,14.50
2019-05-17T10:10:01.029Z,14.57
2019-05-17T10:12:05.088Z,14.87
2019-05-17T10:14:11.510Z,15.27
2019-05-17T10:16:14.478Z,14.37
2019-05-17T10:18:20.035Z,15.13
2019-05-17T10:20:24.026Z,13.53
2019-05-17T10:22:27.577Z,13.37
2019-05-17T10:24:38.201Z,11.83
2019-05-17T10:26:36.677Z,11.83
2019-05-17T10:28:40.576Z,14.17
2019-05-17T10:30:44.147Z,11.80
2019-05-17T10:32:50.274Z,10.53
2019-05-17T10:34:53.524Z,12.97
2019-05-17T10:36:57.416Z,11.57
2019-05-17T10:39:01.216Z,11.83
2019-05-17T10:41:05.120Z,14.37
2019-05-17T10:43:10.106Z,15.40
2019-05-17T10:45:14.102Z,14.73
2019-05-17T10:47:19.571Z,14.63
2019-05-17T10:49:23.608Z,14.07
2019-05-17T10:51:29.468Z,13.00
2019-05-17T10:53:33.079Z,14.43
2019-05-17T10:55:36.984Z,14.60
2019-05-17T10:57:40.518Z,18.00
2019-05-17T10:59:44.372Z,15.47
2019-05-17T11:01:50.187Z,14.00
2019-05-17T11:03:53.822Z,13.90
2019-05-17T11:05:59.734Z,13.97
2019-05-17T11:08:02.911Z,13.20
2019-05-17T11:10:07.279Z,13.07
2019-05-17T11:12:11.181Z,14.83
2019-05-17T11:14:15.084Z,12.63
2019-05-17T11:16:18.914Z,15.43
2019-05-17T11:18:22.791Z,14.97
2019-05-17T11:20:26.903Z,12.73
2019-05-17T11:22:30.817Z,13.77
2019-05-17T11:24:34.722Z,13.13
2019-05-17T11:26:38.627Z,10.10
2019-05-17T11:28:42.540Z,10.57
2019-05-17T11:30:46.432Z,9.80
2019-05-17T11:32:50.263Z,11.80
2019-05-17T11:34:54.145Z,10.87
2019-05-17T11:36:57.788Z,9.93
2019-05-17T11:39:01.676Z,11.23
2019-05-17T11:41:19.865Z,10.07
2019-05-17T11:43:11.125Z,10.13
2019-05-17T11:45:27.328Z,12.07
2019-05-17T11:47:20.540Z,10.57
2019-05-17T11:49:24.350Z,11.17
2019-05-17T11:51:28.270Z,14.03
2019-05-17T11:53:32.176Z,11.07
2019-05-17T11:55:36.070Z,11.83
2019-05-17T11:57:39.970Z,12.00
2019-05-17T11:59:43.874Z,13.47
2019-05-17T12:01:47.800Z,10.67
2019-05-17T12:03:51.328Z,11.60
2019-05-17T12:05:55.193Z,9.27
2019-05-17T12:07:58.713Z,9.00
2019-05-17T12:10:02.698Z,10.93
2019-05-17T12:12:06.603Z,11.27
2019-05-17T12:14:10.113Z,11.77
2019-05-17T12:16:14.007Z,9.80
2019-05-17T12:18:17.896Z,10.90
2019-05-17T12:20:22.428Z,11.10
2019-05-17T12:22:26.332Z,10.93
2019-05-17T12:24:30.236Z,13.27
2019-05-17T12:26:34.036Z,10.00
2019-05-17T12:28:37.657Z,10.07
2019-05-17T12:30:41.546Z,11.23
2019-05-17T12:32:45.446Z,9.77
2019-05-17T12:34:48.999Z,11.00
2019-05-17T12:36:52.865Z,10.33
2019-05-17T12:38:56.459Z,9.87
2019-05-17T12:41:00.454Z,13.07
2019-05-17T12:43:04.355Z,11.97
2019-05-17T12:45:08.700Z,9.83
2019-05-17T12:47:12.568Z,10.30
2019-05-17T12:49:16.171Z,9.77
2019-05-17T12:51:20.086Z,12.47
2019-05-17T12:53:23.987Z,12.93
2019-05-17T12:55:27.792Z,9.90
2019-05-17T12:57:31.714Z,10.03
2019-05-17T12:59:35.600Z,10.23
2019-05-17T13:01:39.404Z,9.77
2019-05-17T13:03:42.935Z,12.90
2019-05-17T13:05:46.800Z,10.03
2019-05-17T13:07:50.351Z,8.50
2019-05-17T13:09:54.203Z,8.47
2019-05-17T13:11:57.736Z,8.60
2019-05-17T13:14:01.598Z,9.10
2019-05-17T13:16:17.608Z,7.33
2019-05-17T13:18:11.478Z,8.97
2019-05-17T13:20:17.106Z,9.83
2019-05-17T13:22:20.629Z,9.30
2019-05-17T13:24:24.701Z,8.60
2019-05-17T13:26:28.506Z,8.07
2019-05-17T13:28:32.334Z,8.87
2019-05-17T13:30:36.246Z,7.27
2019-05-17T13:32:40.129Z,7.37
2019-05-17T13:34:44.038Z,9.13
2019-05-17T13:36:47.942Z,8.23
2019-05-17T13:38:51.746Z,10.13
2019-05-17T13:40:55.549Z,8.17
2019-05-17T13:42:59.075Z,8.67
2019-05-17T13:45:02.767Z,8.83
2019-05-17T13:47:06.637Z,7.87
2019-05-17T13:49:10.462Z,7.60
2019-05-17T13:51:14.350Z,7.27
2019-05-17T13:53:18.166Z,6.73
2019-05-17T13:55:22.090Z,8.47
2019-05-17T13:57:25.986Z,8.50
2019-05-17T13:59:29.885Z,9.07
2019-05-17T14:01:33.784Z,9.53
2019-05-17T14:03:37.691Z,8.87
2019-05-17T14:05:41.209Z,7.67
2019-05-17T14:07:44.774Z,8.10
2019-05-17T14:09:48.602Z,10.37
2019-05-17T14:11:52.592Z,8.47
2019-05-17T14:13:56.497Z,10.90
2019-05-17T14:16:00.309Z,8.10
2019-05-17T14:18:03.834Z,6.73
2019-05-17T14:20:08.220Z,7.10
2019-05-17T14:22:12.022Z,6.80
2019-05-17T14:24:16.030Z,6.60
2019-05-17T14:26:19.585Z,8.00
2019-05-17T14:28:23.431Z,7.23
2019-05-17T14:30:27.227Z,5.90
2019-05-17T14:32:31.156Z,5.63
2019-05-17T14:34:34.672Z,4.13
2019-05-17T14:36:38.535Z,5.70
2019-05-17T14:38:42.089Z,4.67
2019-05-17T14:41:05.810Z,7.00
2019-05-17T14:42:52.247Z,8.33
2019-05-17T14:44:56.117Z,6.57
2019-05-17T14:46:59.998Z,6.73
2019-05-17T14:49:03.914Z,6.97
2019-05-17T14:51:07.457Z,5.63
2019-05-17T14:53:11.320Z,6.57
2019-05-17T14:55:14.899Z,7.87
2019-05-17T14:57:18.843Z,7.17
2019-05-17T14:59:22.361Z,5.33
2019-05-17T15:01:26.243Z,5.10
2019-05-17T15:03:30.126Z,7.07
2019-05-17T15:05:34.038Z,7.37
2019-05-17T15:07:37.940Z,7.17
2019-05-17T15:09:41.842Z,6.10
2019-05-17T15:11:45.663Z,6.50
2019-05-17T15:13:49.319Z,5.47
2019-05-17T15:15:53.267Z,5.63
2019-05-17T15:17:57.159Z,5.37
2019-05-17T15:20:00.968Z,5.73
2019-05-17T15:22:04.856Z,5.10
2019-05-17T15:24:08.886Z,6.10
2019-05-17T15:26:12.769Z,7.23
2019-05-17T15:28:16.678Z,6.30
2019-05-17T15:30:20.441Z,7.33
2019-05-17T15:32:24.248Z,5.70
2019-05-17T15:34:28.183Z,6.37
2019-05-17T15:36:31.816Z,6.47
2019-05-17T15:38:35.340Z,7.97
2019-05-17T15:40:38.961Z,6.57
2019-05-17T15:42:44.657Z,5.50
2019-05-17T15:44:48.051Z,8.63
2019-05-17T15:46:51.931Z,6.83
2019-05-17T15:48:55.735Z,7.43
2019-05-17T15:50:59.373Z,6.80
2019-05-17T15:53:02.890Z,6.70
2019-05-17T15:55:07.515Z,6.67
2019-05-17T15:57:11.359Z,7.30
2019-05-17T15:59:15.163Z,5.07
2019-05-17T16:01:19.076Z,5.93
2019-05-17T16:03:22.596Z,5.03
2019-05-17T16:05:26.137Z,5.00
2019-05-17T16:07:29.971Z,5.77
2019-05-17T16:09:33.862Z,6.17
2019-05-17T16:11:37.766Z,5.90
2019-05-17T16:13:41.587Z,5.20
2019-05-17T16:15:45.482Z,5.87
2019-05-17T16:17:49.390Z,5.80
2019-05-17T16:19:53.194Z,6.20
2019-05-17T16:21:57.096Z,6.53
2019-05-17T16:24:01.017Z,6.73
2019-05-17T16:26:04.939Z,6.57
2019-05-17T16:28:08.815Z,6.00
2019-05-17T16:30:13.143Z,7.67
2019-05-17T16:32:17.037Z,4.90
2019-05-17T16:34:20.945Z,4.90
2019-05-17T16:36:24.856Z,5.77
2019-05-17T16:38:28.982Z,6.73
2019-05-17T16:40:33.262Z,5.70
2019-05-17T16:42:36.802Z,5.80
2019-05-17T16:44:40.351Z,6.17
2019-05-17T16:46:44.267Z,9.27
2019-05-17T16:48:47.797Z,6.13
2019-05-17T16:50:51.683Z,7.07
2019-05-17T16:53:05.665Z,5.10
2019-05-17T16:55:00.815Z,6.67
2019-05-17T16:57:05.135Z,6.77
2019-05-17T16:59:08.643Z,5.17
2019-05-17T17:01:12.735Z,5.30
2019-05-17T17:03:16.634Z,5.57
2019-05-17T17:05:20.165Z,4.90
2019-05-17T17:07:24.032Z,6.90
2019-05-17T17:09:27.567Z,6.20
2019-05-17T17:11:31.440Z,8.20
2019-05-17T17:13:34.992Z,7.63
2019-05-17T17:15:38.506Z,7.13
2019-05-17T17:17:42.330Z,6.30
2019-05-17T17:19:45.858Z,7.70
2019-05-17T17:21:49.743Z,8.17
2019-05-17T17:23:53.359Z,7.83
2019-05-17T17:25:56.890Z,7.37
2019-05-17T17:28:00.738Z,8.20
2019-05-17T17:30:07.429Z,8.43
2019-05-17T17:32:21.105Z,8.47
2019-05-17T17:34:16.859Z,8.83
2019-05-17T17:36:20.763Z,8.00
2019-05-17T17:38:24.296Z,8.53
2019-05-17T17:40:28.261Z,8.07
2019-05-17T17:42:32.055Z,7.43
2019-05-17T17:44:35.869Z,7.93
2019-05-17T17:46:39.413Z,7.47
2019-05-17T17:48:45.842Z,7.27
2019-05-17T17:50:48.733Z,7.07
2019-05-17T17:52:52.939Z,7.93
2019-05-17T17:54:56.466Z,7.90
2019-05-17T17:57:00.009Z,9.13
2019-05-17T17:59:04.443Z,8.33
2019-05-17T18:01:08.352Z,7.60
2019-05-17T18:03:12.245Z,7.77
2019-05-17T18:05:16.342Z,8.43
2019-05-17T18:07:20.253Z,10.00
2019-05-17T18:09:24.193Z,7.83
2019-05-17T18:11:27.967Z,8.87
2019-05-17T18:13:31.888Z,8.47
2019-05-17T18:15:46.136Z,8.83
2019-05-17T18:17:50.034Z,7.83
2019-05-17T18:19:53.597Z,10.00
2019-05-17T18:21:57.451Z,9.77
2019-05-17T18:24:01.342Z,10.23
2019-05-17T18:26:08.269Z,11.10
2019-05-17T18:28:11.895Z,10.63
2019-05-17T18:30:16.140Z,8.90
2019-05-17T18:32:20.026Z,8.57
2019-05-17T18:34:24.146Z,9.83
2019-05-17T18:36:28.369Z,8.77
2019-05-17T18:38:32.803Z,11.03
2019-05-17T18:40:36.895Z,8.10
2019-05-17T18:42:40.490Z,9.10
2019-05-17T18:44:44.396Z,9.30
2019-05-17T18:46:48.189Z,8.90
2019-05-17T18:48:52.197Z,10.20
2019-05-17T18:50:56.004Z,9.80
2019-05-17T18:52:59.966Z,9.57
2019-05-17T18:55:05.272Z,9.20
2019-05-17T18:57:09.150Z,7.83
2019-05-17T18:59:16.245Z,7.73
2019-05-17T19:01:19.773Z,10.23
2019-05-17T19:03:23.636Z,8.77
2019-05-17T19:05:27.442Z,9.23
2019-05-17T19:07:31.349Z,11.33
2019-05-17T19:09:34.881Z,7.80
2019-05-17T19:11:38.739Z,8.47
2019-05-17T19:13:42.307Z,8.27
2019-05-17T19:15:46.081Z,8.70
2019-05-17T19:17:49.606Z,10.57
2019-05-17T19:19:53.435Z,8.37
2019-05-17T19:21:56.981Z,10.43
2019-05-17T19:24:00.843Z,9.93
2019-05-17T19:26:04.751Z,10.30
2019-05-17T19:28:08.757Z,10.20
2019-05-17T19:30:14.423Z,10.63
2019-05-17T19:32:18.336Z,11.57
2019-05-17T19:34:22.214Z,11.10
2019-05-17T19:36:26.528Z,10.72
2019-05-17T19:38:30.061Z,12.03
2019-05-17T19:40:33.942Z,13.30
2019-05-17T19:42:38.155Z,13.30
2019-05-17T19:44:42.047Z,12.73
2019-05-17T19:46:46.063Z,12.57
2019-05-17T19:48:50.041Z,12.77
2019-05-17T19:50:53.559Z,12.23
2019-05-17T19:52:57.385Z,13.27
2019-05-17T19:55:00.915Z,12.63
2019-05-17T19:57:04.865Z,11.50
2019-05-17T19:59:08.677Z,13.77
2019-05-17T20:01:12.592Z,13.23
2019-05-17T20:03:18.025Z,11.97
2019-05-17T20:05:21.929Z,11.60
2019-05-17T20:07:25.831Z,11.77
2019-05-17T20:09:29.722Z,12.33
2019-05-17T20:11:34.813Z,11.80
2019-05-17T20:13:40.570Z,12.67
2019-05-17T20:15:44.427Z,11.57
2019-05-17T20:17:49.669Z,12.07
2019-05-17T20:19:53.210Z,11.80
2019-05-17T20:21:57.047Z,11.50
2019-05-17T20:24:00.625Z,13.07
2019-05-17T20:26:04.441Z,12.23
2019-05-17T20:28:08.370Z,11.80
2019-05-17T20:30:12.553Z,11.93
2019-05-17T20:32:16.798Z,11.93
2019-05-17T20:34:20.318Z,12.13
2019-05-17T20:36:24.127Z,11.80
2019-05-17T20:38:27.988Z,11.20
2019-05-17T20:40:31.892Z,11.47
2019-05-17T20:42:35.450Z,12.47
2019-05-17T20:44:39.290Z,15.20
2019-05-17T20:46:43.196Z,12.17
2019-05-17T20:48:46.735Z,12.13
2019-05-17T20:50:50.612Z,11.53
2019-05-17T20:52:54.151Z,8.93
2019-05-17T20:54:59.453Z,11.33
2019-05-17T20:57:03.364Z,12.23
2019-05-17T20:59:07.256Z,10.67
2019-05-17T21:01:11.157Z,9.33
2019-05-17T21:03:14.954Z,9.90
2019-05-17T21:05:18.963Z,9.50
2019-05-17T21:07:22.864Z,10.07
2019-05-17T21:09:26.386Z,11.77
2019-05-17T21:11:30.271Z,9.43
2019-05-17T21:13:33.796Z,9.80
2019-05-17T21:15:47.370Z,8.73
2019-05-17T21:17:42.623Z,9.27
2019-05-17T21:19:46.131Z,8.40
2019-05-17T21:21:50.008Z,9.60
2019-05-17T21:23:53.812Z,9.70
2019-05-17T21:25:59.312Z,13.57
2019-05-17T21:28:03.152Z,9.97
2019-05-17T21:30:07.900Z,13.40
2019-05-17T21:32:11.782Z,9.70
2019-05-17T21:34:15.680Z,8.23
2019-05-17T21:36:19.204Z,8.47
2019-05-17T21:38:23.106Z,9.00
2019-05-17T21:40:26.996Z,10.27
2019-05-17T21:42:30.904Z,10.33
2019-05-17T21:44:34.804Z,11.03
2019-05-17T21:46:38.722Z,9.37
2019-05-17T21:48:42.622Z,10.17
2019-05-17T21:50:46.526Z,8.97
2019-05-17T21:52:50.054Z,10.23
2019-05-17T21:54:53.596Z,8.60
2019-05-17T21:56:57.411Z,10.53
2019-05-17T21:59:01.416Z,9.20
2019-05-17T22:01:14.966Z,10.93
2019-05-17T22:03:18.880Z,10.27
2019-05-17T22:05:22.784Z,10.33
2019-05-17T22:07:26.693Z,8.60
2019-05-17T22:09:30.584Z,10.37
2019-05-17T22:11:34.477Z,8.57
2019-05-17T22:13:39.685Z,9.00
2019-05-17T22:15:43.518Z,8.90
2019-05-17T22:17:47.425Z,8.73
2019-05-17T22:19:50.960Z,9.77
2019-05-17T22:21:54.820Z,8.50
2019-05-17T22:23:58.755Z,8.20
2019-05-17T22:26:02.286Z,8.10
2019-05-17T22:28:05.815Z,7.77
2019-05-17T22:30:09.937Z,8.67
2019-05-17T22:32:13.856Z,7.23
2019-05-17T22:34:17.774Z,6.43
2019-05-17T22:36:21.270Z,7.27
2019-05-17T22:38:25.163Z,7.97
2019-05-17T22:40:29.066Z,6.07
2019-05-17T22:42:32.966Z,9.43
2019-05-17T22:44:36.874Z,6.50
2019-05-17T22:46:40.436Z,7.50
2019-05-17T22:48:44.280Z,10.13
2019-05-17T22:50:48.304Z,11.50
2019-05-17T22:52:52.190Z,11.87
2019-05-17T22:54:56.090Z,11.90
2019-05-17T22:56:59.994Z,11.80
2019-05-17T22:59:03.790Z,13.67
2019-05-17T23:01:07.330Z,13.63
2019-05-17T23:03:11.189Z,10.63
2019-05-17T23:05:15.105Z,11.53
2019-05-17T23:07:19.018Z,11.97
2019-05-17T23:09:22.921Z,11.33
2019-05-17T23:11:26.820Z,12.17
2019-05-17T23:13:30.350Z,11.70
2019-05-17T23:15:35.847Z,12.77
2019-05-17T23:17:39.758Z,11.87
2019-05-17T23:19:43.665Z,13.70
2019-05-17T23:21:47.585Z,12.47
2019-05-17T23:23:51.472Z,13.50
2019-05-17T23:25:55.264Z,9.53
2019-05-17T23:27:58.814Z,10.90
2019-05-17T23:30:02.676Z,9.63
2019-05-17T23:32:06.216Z,9.43
2019-05-17T23:34:09.749Z,13.00
2019-05-17T23:36:13.583Z,12.80
2019-05-17T23:38:17.134Z,13.83
2019-05-17T23:40:20.900Z,15.57
2019-05-17T23:42:24.755Z,12.40
2019-05-17T23:44:28.590Z,12.53
2019-05-17T23:46:32.499Z,12.10
2019-05-17T23:48:36.402Z,12.67
2019-05-17T23:50:40.199Z,11.40
2019-05-17T23:52:43.918Z,11.23
2019-05-17T23:54:47.792Z,12.33
2019-05-17T23:56:51.315Z,12.47
2019-05-17T23:58:54.927Z,10.80
